createdAt,value
2023-05-16T00:00:51.865Z,12.52
2023-05-16T00:01:51.966Z,12.30
2023-05-16T00:02:52.027Z,12.49
2023-05-16T00:03:52.070Z,12.25
2023-05-16T00:04:51.979Z,12.24
2023-05-16T00:05:52.036Z,12.38
2023-05-16T00:06:52.069Z,12.45
2023-05-16T00:07:52.071Z,12.39
2023-05-16T00:08:52.085Z,12.26
2023-05-16T00:09:52.139Z,12.64
2023-05-16T00:10:52.164Z,12.71
2023-05-16T00:11:52.185Z,12.55
2023-05-16T00:12:52.205Z,12.37
2023-05-16T00:13:52.205Z,11.87
2023-05-16T00:14:52.232Z,12.20
2023-05-16T00:15:52.250Z,12.42
2023-05-16T00:16:52.356Z,12.48
2023-05-16T00:17:52.330Z,12.47
2023-05-16T00:18:52.379Z,11.90
2023-05-16T00:19:52.336Z,12.37
2023-05-16T00:20:52.356Z,12.37
2023-05-16T00:21:52.369Z,12.27
2023-05-16T00:22:52.420Z,12.22
2023-05-16T00:23:52.447Z,12.41
2023-05-16T00:24:52.496Z,12.18
2023-05-16T00:25:52.498Z,12.34
2023-05-16T00:26:52.524Z,12.35
2023-05-16T00:27:52.553Z,12.40
2023-05-16T00:28:52.534Z,12.42
2023-05-16T00:29:52.541Z,12.17
2023-05-16T00:30:52.571Z,11.82
2023-05-16T00:31:52.577Z,12.44
2023-05-16T00:32:52.640Z,12.40
2023-05-16T00:33:52.562Z,12.09
2023-05-16T00:34:52.589Z,12.16
2023-05-16T00:35:52.636Z,12.05
2023-05-16T00:36:52.635Z,11.91
2023-05-16T00:37:52.644Z,12.23
2023-05-16T00:38:52.657Z,11.98
2023-05-16T00:39:52.702Z,12.21
2023-05-16T00:40:52.752Z,12.51
2023-05-16T00:41:52.774Z,12.44
2023-05-16T00:42:52.798Z,12.41
2023-05-16T00:43:52.837Z,12.33
2023-05-16T00:44:52.888Z,12.92
2023-05-16T00:45:52.925Z,12.46
2023-05-16T00:46:52.886Z,12.95
2023-05-16T00:47:52.932Z,12.56
2023-05-16T00:48:52.927Z,12.91
2023-05-16T00:49:52.947Z,12.85
2023-05-16T00:50:53.039Z,12.98
2023-05-16T00:51:52.995Z,12.85
2023-05-16T00:52:52.984Z,12.44
2023-05-16T00:53:53.028Z,12.70
2023-05-16T00:54:52.986Z,12.38
2023-05-16T00:55:53.020Z,12.86
2023-05-16T00:56:53.047Z,12.82
2023-05-16T00:57:53.088Z,12.68
2023-05-16T00:58:53.132Z,12.59
2023-05-16T00:59:53.160Z,12.43
2023-05-16T01:00:53.203Z,12.27
2023-05-16T01:01:53.407Z,12.26
2023-05-16T01:02:53.406Z,12.44
2023-05-16T01:03:53.426Z,12.62
2023-05-16T01:04:53.374Z,12.14
2023-05-16T01:05:53.408Z,12.56
2023-05-16T01:06:53.480Z,12.33
2023-05-16T01:07:53.554Z,12.37
2023-05-16T01:08:53.542Z,12.25
2023-05-16T01:09:53.573Z,11.79
2023-05-16T01:10:53.642Z,12.09
2023-05-16T01:11:53.672Z,11.89
2023-05-16T01:12:53.681Z,12.06
2023-05-16T01:13:53.742Z,11.72
2023-05-16T01:14:53.793Z,11.94
2023-05-16T01:15:53.826Z,11.92
2023-05-16T01:16:53.798Z,11.84
2023-05-16T01:17:53.836Z,11.87
2023-05-16T01:18:53.845Z,11.38
2023-05-16T01:19:53.779Z,11.54
2023-05-16T01:20:53.785Z,11.58
2023-05-16T01:21:53.812Z,11.14
2023-05-16T01:22:53.838Z,11.47
2023-05-16T01:23:53.852Z,11.17
2023-05-16T01:24:53.922Z,11.25
2023-05-16T01:25:53.966Z,11.15
2023-05-16T01:26:54.054Z,10.83
2023-05-16T01:27:54.036Z,10.82
2023-05-16T01:28:54.012Z,10.63
2023-05-16T01:29:54.008Z,10.52
2023-05-16T01:30:54.014Z,10.26
2023-05-16T01:31:54.119Z,10.57
2023-05-16T01:32:54.168Z,10.48
2023-05-16T01:33:54.129Z,10.46
2023-05-16T01:34:54.168Z,10.48
2023-05-16T01:35:54.218Z,10.58
2023-05-16T01:36:54.253Z,10.66
2023-05-16T01:37:54.287Z,10.51
2023-05-16T01:38:54.339Z,10.94
2023-05-16T01:39:54.428Z,10.87
2023-05-16T01:40:54.429Z,10.84
2023-05-16T01:41:54.471Z,11.15
2023-05-16T01:42:54.507Z,11.16
2023-05-16T01:43:54.564Z,11.30
2023-05-16T01:44:54.612Z,11.08
2023-05-16T01:45:54.655Z,11.13
2023-05-16T01:46:54.691Z,11.07
2023-05-16T01:47:54.747Z,11.16
2023-05-16T01:48:54.768Z,11.19
2023-05-16T01:49:54.838Z,11.26
2023-05-16T01:50:54.823Z,11.40
2023-05-16T01:51:54.848Z,11.27
2023-05-16T01:52:54.833Z,11.49
2023-05-16T01:53:54.844Z,11.27
2023-05-16T01:54:54.859Z,11.26
2023-05-16T01:55:54.890Z,11.43
2023-05-16T01:56:54.942Z,11.24
2023-05-16T01:57:54.991Z,11.53
2023-05-16T01:58:55.040Z,11.47
2023-05-16T01:59:55.072Z,11.30
2023-05-16T02:00:55.194Z,11.25
2023-05-16T02:01:55.201Z,11.14
2023-05-16T02:02:55.338Z,11.17
2023-05-16T02:03:55.261Z,11.41
2023-05-16T02:04:55.283Z,11.37
2023-05-16T02:05:55.305Z,11.12
2023-05-16T02:06:55.349Z,11.26
2023-05-16T02:07:55.400Z,11.22
2023-05-16T02:08:55.443Z,11.47
2023-05-16T02:09:55.444Z,11.46
2023-05-16T02:10:55.463Z,11.51
2023-05-16T02:11:55.549Z,11.37
2023-05-16T02:12:55.577Z,11.13
2023-05-16T02:13:55.583Z,11.39
2023-05-16T02:14:55.621Z,11.28
2023-05-16T02:15:55.663Z,11.32
2023-05-16T02:16:55.746Z,10.89
2023-05-16T02:17:55.775Z,11.15
2023-05-16T02:18:55.730Z,10.80
2023-05-16T02:19:55.711Z,11.13
2023-05-16T02:20:55.728Z,11.07
2023-05-16T02:21:55.722Z,10.76
2023-05-16T02:22:55.711Z,10.83
2023-05-16T02:23:55.716Z,10.77
2023-05-16T02:24:55.729Z,10.87
2023-05-16T02:25:55.732Z,10.72
2023-05-16T02:26:55.802Z,10.69
2023-05-16T02:27:55.817Z,10.91
2023-05-16T02:28:55.866Z,10.63
2023-05-16T02:29:55.925Z,10.73
2023-05-16T02:30:56.020Z,10.83
2023-05-16T02:31:56.067Z,10.69
2023-05-16T02:32:56.140Z,10.17
2023-05-16T02:33:56.138Z,10.59
2023-05-16T02:34:56.234Z,10.41
2023-05-16T02:35:56.238Z,10.93
2023-05-16T02:36:56.300Z,10.77
2023-05-16T02:37:56.350Z,10.98
2023-05-16T02:38:56.382Z,10.99
2023-05-16T02:39:56.456Z,10.93
2023-05-16T02:40:56.489Z,10.96
2023-05-16T02:41:56.517Z,10.84
2023-05-16T02:42:56.591Z,10.99
2023-05-16T02:43:56.745Z,10.82
2023-05-16T02:44:56.688Z,10.85
2023-05-16T02:45:56.774Z,10.92
2023-05-16T02:46:56.780Z,10.87
2023-05-16T02:47:56.876Z,10.78
2023-05-16T02:48:56.881Z,10.73
2023-05-16T02:49:56.919Z,10.81
2023-05-16T02:50:56.974Z,10.93
2023-05-16T02:51:57.028Z,10.59
2023-05-16T02:52:57.074Z,10.68
2023-05-16T02:53:57.248Z,10.46
2023-05-16T02:55:15.824Z,10.54
2023-05-16T02:55:58.175Z,10.57
2023-05-16T02:56:57.134Z,10.58
2023-05-16T02:57:57.128Z,10.58
2023-05-16T02:58:57.128Z,10.57
2023-05-16T02:59:57.130Z,10.70
2023-05-16T03:00:57.141Z,10.82
2023-05-16T03:01:57.141Z,10.47
2023-05-16T03:02:57.211Z,10.37
2023-05-16T03:03:57.153Z,10.32
2023-05-16T03:04:57.077Z,9.70
2023-05-16T03:05:57.151Z,9.93
2023-05-16T03:06:57.158Z,9.79
2023-05-16T03:07:57.218Z,9.78
2023-05-16T03:08:57.256Z,9.85
2023-05-16T03:09:57.318Z,9.53
2023-05-16T03:10:57.395Z,9.55
2023-05-16T03:11:57.445Z,9.58
2023-05-16T03:12:57.453Z,9.56
2023-05-16T03:13:58.048Z,9.56
2023-05-16T03:14:57.575Z,9.58
2023-05-16T03:15:57.664Z,9.79
2023-05-16T03:16:57.664Z,9.85
2023-05-16T03:17:57.720Z,9.95
2023-05-16T03:18:57.913Z,10.02
2023-05-16T03:19:57.793Z,9.81
2023-05-16T03:20:57.843Z,9.96
2023-05-16T03:21:57.902Z,9.85
2023-05-16T03:22:57.938Z,9.88
2023-05-16T03:23:58.007Z,9.96
2023-05-16T03:24:57.991Z,9.79
2023-05-16T03:25:57.989Z,9.72
2023-05-16T03:26:57.996Z,9.47
2023-05-16T03:27:57.995Z,9.75
2023-05-16T03:28:58.013Z,9.85
2023-05-16T03:29:58.035Z,10.04
2023-05-16T03:30:58.023Z,10.15
2023-05-16T03:31:58.056Z,10.26
2023-05-16T03:32:58.023Z,10.12
2023-05-16T03:33:58.053Z,10.16
2023-05-16T03:34:58.092Z,9.98
2023-05-16T03:35:58.172Z,10.04
2023-05-16T03:36:58.257Z,10.12
2023-05-16T03:37:58.276Z,9.78
2023-05-16T03:38:58.321Z,9.90
2023-05-16T03:39:58.406Z,10.28
2023-05-16T03:40:58.423Z,10.38
2023-05-16T03:41:58.480Z,10.30
2023-05-16T03:42:58.551Z,10.21
2023-05-16T03:43:58.609Z,10.27
2023-05-16T03:44:58.676Z,10.20
2023-05-16T03:45:58.727Z,10.45
2023-05-16T03:46:58.763Z,10.28
2023-05-16T03:47:58.798Z,10.41
2023-05-16T03:48:58.775Z,10.28
2023-05-16T03:49:58.782Z,10.17
2023-05-16T03:50:58.809Z,10.32
2023-05-16T03:51:58.808Z,10.25
2023-05-16T03:52:58.826Z,10.08
2023-05-16T03:53:58.841Z,10.03
2023-05-16T03:54:58.848Z,10.22
2023-05-16T03:55:58.854Z,9.90
2023-05-16T03:56:58.866Z,10.08
2023-05-16T03:57:58.876Z,10.09
2023-05-16T03:58:58.868Z,10.05
2023-05-16T03:59:58.884Z,10.13
2023-05-16T04:00:58.894Z,10.24
2023-05-16T04:01:58.934Z,10.21
2023-05-16T04:02:58.966Z,10.09
2023-05-16T04:03:58.961Z,10.10
2023-05-16T04:04:59.043Z,9.99
2023-05-16T04:05:59.110Z,10.05
2023-05-16T04:06:59.110Z,9.88
2023-05-16T04:07:59.184Z,9.92
2023-05-16T04:08:59.224Z,9.90
2023-05-16T04:09:59.247Z,9.73
2023-05-16T04:10:59.313Z,9.59
2023-05-16T04:11:59.346Z,9.52
2023-05-16T04:12:59.400Z,9.38
2023-05-16T04:13:59.498Z,9.19
2023-05-16T04:14:59.482Z,9.15
2023-05-16T04:15:59.495Z,9.25
2023-05-16T04:16:59.549Z,9.30
2023-05-16T04:17:59.535Z,9.37
2023-05-16T04:18:59.524Z,9.61
2023-05-16T04:19:59.506Z,9.63
2023-05-16T04:20:59.517Z,9.73
2023-05-16T04:21:59.495Z,9.75
2023-05-16T04:22:59.510Z,9.43
2023-05-16T04:23:59.530Z,9.61
2023-05-16T04:24:59.568Z,9.44
2023-05-16T04:25:59.614Z,9.48
2023-05-16T04:26:59.667Z,9.56
2023-05-16T04:27:59.702Z,9.53
2023-05-16T04:29:00.294Z,9.62
2023-05-16T04:29:59.738Z,9.43
2023-05-16T04:30:59.816Z,9.74
2023-05-16T04:31:59.793Z,9.54
2023-05-16T04:32:59.825Z,9.47
2023-05-16T04:33:59.827Z,9.51
2023-05-16T04:34:59.901Z,9.71
2023-05-16T04:35:59.948Z,9.71
2023-05-16T04:36:59.980Z,9.70
2023-05-16T04:38:00.051Z,9.66
2023-05-16T04:39:00.075Z,9.75
2023-05-16T04:40:00.192Z,9.78
2023-05-16T04:41:00.172Z,9.72
2023-05-16T04:42:00.226Z,9.75
2023-05-16T04:43:00.293Z,9.72
2023-05-16T04:44:00.325Z,9.76
2023-05-16T04:45:00.393Z,9.89
2023-05-16T04:46:00.462Z,9.82
2023-05-16T04:47:00.443Z,9.79
2023-05-16T04:48:00.458Z,9.89
2023-05-16T04:49:00.440Z,9.76
2023-05-16T04:50:00.482Z,9.59
2023-05-16T04:51:00.453Z,9.68
2023-05-16T04:52:00.454Z,9.73
2023-05-16T04:53:00.469Z,9.65
2023-05-16T04:54:00.546Z,9.62
2023-05-16T04:55:00.610Z,9.64
2023-05-16T04:56:00.611Z,9.71
2023-05-16T04:57:00.677Z,9.49
2023-05-16T04:58:00.735Z,9.55
2023-05-16T04:59:00.759Z,9.53
2023-05-16T05:00:00.837Z,9.41
2023-05-16T05:01:01.906Z,9.46
2023-05-16T05:02:00.944Z,9.44
2023-05-16T05:03:01.014Z,9.44
2023-05-16T05:04:01.004Z,9.42
2023-05-16T05:05:01.165Z,9.45
2023-05-16T05:06:01.126Z,9.34
2023-05-16T05:07:01.156Z,9.20
2023-05-16T05:08:01.131Z,9.23
2023-05-16T05:09:01.161Z,9.13
2023-05-16T05:10:01.153Z,9.27
2023-05-16T05:11:01.163Z,9.26
2023-05-16T05:12:01.203Z,9.33
2023-05-16T05:13:01.284Z,9.50
2023-05-16T05:14:01.341Z,9.50
2023-05-16T05:15:01.369Z,9.32
2023-05-16T05:16:01.435Z,9.51
2023-05-16T05:17:01.496Z,9.60
2023-05-16T05:18:01.785Z,9.65
2023-05-16T05:19:01.680Z,9.57
2023-05-16T05:20:03.116Z,9.55
2023-05-16T05:21:01.626Z,9.49
2023-05-16T05:22:01.626Z,9.50
2023-05-16T05:23:01.637Z,9.48
2023-05-16T05:24:01.642Z,9.25
2023-05-16T05:25:01.663Z,9.30
2023-05-16T05:26:01.662Z,9.25
2023-05-16T05:27:01.664Z,9.09
2023-05-16T05:28:01.678Z,8.81
2023-05-16T05:29:05.739Z,9.02
2023-05-16T05:30:01.664Z,9.05
2023-05-16T05:31:01.853Z,9.16
2023-05-16T05:32:01.834Z,9.39
2023-05-16T05:33:01.714Z,10.36
2023-05-16T05:34:01.633Z,11.49
2023-05-16T05:35:01.631Z,12.62
2023-05-16T05:36:04.049Z,13.72
2023-05-16T05:37:01.876Z,14.90
2023-05-16T05:38:01.894Z,16.47
2023-05-16T05:39:01.952Z,16.42
2023-05-16T05:40:01.985Z,18.10
2023-05-16T05:41:02.318Z,18.84
2023-05-16T05:42:02.039Z,20.44
2023-05-16T05:43:02.068Z,21.36
2023-05-16T05:44:02.063Z,22.77
2023-05-16T05:45:02.091Z,24.84
2023-05-16T05:46:02.405Z,26.07
2023-05-16T05:47:02.081Z,27.31
2023-05-16T05:48:02.106Z,28.84
2023-05-16T05:49:02.109Z,30.17
2023-05-16T05:50:02.157Z,31.70
2023-05-16T05:51:02.344Z,34.68
2023-05-16T05:52:02.258Z,35.33
2023-05-16T05:53:02.288Z,35.83
2023-05-16T05:54:02.371Z,36.32
2023-05-16T05:55:02.430Z,39.11
2023-05-16T05:56:02.453Z,39.54
2023-05-16T05:57:02.521Z,40.31
2023-05-16T05:58:03.785Z,42.08
2023-05-16T05:59:02.544Z,41.55
2023-05-16T06:00:02.564Z,43.21
2023-05-16T06:01:02.551Z,43.84
2023-05-16T06:02:02.705Z,45.41
2023-05-16T06:03:02.704Z,45.67
2023-05-16T06:04:02.720Z,46.68
2023-05-16T06:05:02.805Z,47.59
2023-05-16T06:06:02.831Z,50.00
2023-05-16T06:07:02.869Z,50.97
2023-05-16T06:08:02.896Z,51.44
2023-05-16T06:09:02.946Z,52.35
2023-05-16T06:10:04.801Z,54.15
2023-05-16T06:11:03.349Z,53.37
2023-05-16T06:12:03.093Z,54.88
2023-05-16T06:13:03.130Z,55.67
2023-05-16T06:14:03.166Z,56.21
2023-05-16T06:15:03.202Z,55.78
2023-05-16T06:16:03.287Z,55.50
2023-05-16T06:17:03.337Z,55.78
2023-05-16T06:18:03.554Z,56.25
2023-05-16T06:19:03.479Z,57.90
2023-05-16T06:20:03.517Z,58.68
2023-05-16T06:21:03.548Z,57.32
2023-05-16T06:22:03.597Z,56.97
2023-05-16T06:23:03.615Z,55.48
2023-05-16T06:24:03.634Z,57.36
2023-05-16T06:25:03.645Z,56.09
2023-05-16T06:26:03.678Z,54.41
2023-05-16T06:27:03.708Z,56.41
2023-05-16T06:28:03.750Z,56.05
2023-05-16T06:29:03.740Z,55.87
2023-05-16T06:30:03.760Z,55.68
2023-05-16T06:31:03.859Z,55.64
2023-05-16T06:32:03.882Z,56.19
2023-05-16T06:33:03.891Z,55.65
2023-05-16T06:34:03.834Z,52.19
2023-05-16T06:35:03.867Z,48.48
2023-05-16T06:36:03.884Z,42.87
2023-05-16T06:37:03.967Z,44.94
2023-05-16T06:38:03.985Z,46.79
2023-05-16T06:39:04.045Z,46.89
2023-05-16T06:40:04.112Z,46.80
2023-05-16T06:41:04.409Z,47.44
2023-05-16T06:42:04.230Z,48.07
2023-05-16T06:43:04.274Z,51.77
2023-05-16T06:44:04.309Z,65.55
2023-05-16T06:45:04.400Z,68.20
2023-05-16T06:46:04.535Z,61.11
2023-05-16T06:47:04.489Z,56.75
2023-05-16T06:48:04.561Z,55.46
2023-05-16T06:49:04.501Z,54.17
2023-05-16T06:50:04.511Z,54.57
2023-05-16T06:51:04.874Z,54.09
2023-05-16T06:52:04.510Z,54.12
2023-05-16T06:53:04.560Z,55.38
2023-05-16T06:54:04.539Z,54.73
2023-05-16T06:55:04.588Z,55.38
2023-05-16T06:56:04.518Z,53.19
2023-05-16T06:57:04.573Z,52.81
2023-05-16T06:58:04.609Z,55.24
2023-05-16T06:59:04.670Z,71.21
2023-05-16T07:00:04.723Z,63.19
2023-05-16T07:01:04.818Z,55.14
2023-05-16T07:02:04.825Z,54.26
2023-05-16T07:03:04.912Z,56.38
2023-05-16T07:04:04.971Z,55.22
2023-05-16T07:05:04.923Z,53.47
2023-05-16T07:06:04.973Z,51.01
2023-05-16T07:07:05.036Z,48.89
2023-05-16T07:08:07.648Z,48.25
2023-05-16T07:09:05.082Z,46.96
2023-05-16T07:10:05.091Z,45.60
2023-05-16T07:11:05.381Z,41.54
2023-05-16T07:12:05.069Z,39.56
2023-05-16T07:13:05.147Z,33.03
2023-05-16T07:14:05.076Z,33.54
2023-05-16T07:15:05.031Z,33.46
2023-05-16T07:16:05.092Z,34.33
2023-05-16T07:17:05.172Z,33.08
2023-05-16T07:18:05.085Z,32.06
2023-05-16T07:19:05.105Z,32.17
2023-05-16T07:20:05.634Z,39.14
2023-05-16T07:21:05.372Z,50.73
2023-05-16T07:22:04.992Z,43.02
2023-05-16T07:23:04.991Z,36.49
2023-05-16T07:24:04.984Z,34.63
2023-05-16T07:25:05.017Z,33.45
2023-05-16T07:26:05.396Z,31.59
2023-05-16T07:27:04.970Z,26.39
2023-05-16T07:28:04.951Z,23.66
2023-05-16T07:29:04.964Z,22.42
2023-05-16T07:30:04.938Z,23.36
2023-05-16T07:31:04.941Z,24.20
2023-05-16T07:32:04.956Z,23.31
2023-05-16T07:33:04.965Z,23.35
2023-05-16T07:34:04.927Z,23.00
2023-05-16T07:35:04.897Z,22.53
2023-05-16T07:36:16.050Z,20.64
2023-05-16T07:37:05.891Z,20.66
2023-05-16T07:38:04.883Z,20.22
2023-05-16T07:39:04.881Z,19.20
2023-05-16T07:40:04.892Z,18.48
2023-05-16T07:41:04.910Z,18.13
2023-05-16T07:42:04.846Z,17.40
2023-05-16T07:43:04.867Z,16.67
2023-05-16T07:44:04.884Z,16.13
2023-05-16T07:45:04.820Z,15.81
2023-05-16T07:46:04.849Z,15.11
2023-05-16T07:47:04.868Z,14.83
2023-05-16T07:48:04.935Z,14.53
2023-05-16T07:49:04.915Z,14.55
2023-05-16T07:50:04.955Z,14.73
2023-05-16T07:51:05.264Z,14.29
2023-05-16T07:52:05.070Z,14.07
2023-05-16T07:53:05.110Z,14.23
2023-05-16T07:54:05.149Z,13.90
2023-05-16T07:55:05.212Z,13.54
2023-05-16T07:56:05.603Z,13.17
2023-05-16T07:57:05.349Z,12.89
2023-05-16T07:58:05.391Z,13.04
2023-05-16T07:59:05.476Z,13.02
2023-05-16T08:00:05.535Z,12.82
2023-05-16T08:01:05.598Z,13.18
2023-05-16T08:02:05.677Z,12.30
2023-05-16T08:03:05.816Z,12.04
2023-05-16T08:04:05.820Z,12.45
2023-05-16T08:05:05.857Z,12.30
2023-05-16T08:06:06.107Z,11.91
2023-05-16T08:07:05.956Z,12.06
2023-05-16T08:08:06.037Z,11.85
2023-05-16T08:09:06.082Z,11.46
2023-05-16T08:10:06.160Z,11.73
2023-05-16T08:11:06.189Z,11.34
2023-05-16T08:12:06.225Z,11.47
2023-05-16T08:13:06.258Z,10.99
2023-05-16T08:14:06.327Z,11.01
2023-05-16T08:15:06.383Z,11.16
2023-05-16T08:16:06.435Z,10.83
2023-05-16T08:17:06.408Z,10.83
2023-05-16T08:18:06.474Z,10.46
2023-05-16T08:19:06.525Z,9.98
2023-05-16T08:20:06.574Z,9.22
2023-05-16T08:21:06.900Z,10.30
2023-05-16T08:22:06.600Z,10.81
2023-05-16T08:23:06.629Z,10.33
2023-05-16T08:24:06.706Z,11.14
2023-05-16T08:25:06.776Z,12.14
2023-05-16T08:26:06.847Z,12.90
2023-05-16T08:27:06.883Z,13.71
2023-05-16T08:28:06.940Z,14.82
2023-05-16T08:29:06.998Z,15.93
2023-05-16T08:30:07.061Z,16.99
2023-05-16T08:31:07.142Z,18.64
2023-05-16T08:32:07.180Z,19.14
2023-05-16T08:33:07.299Z,20.88
2023-05-16T08:34:07.283Z,20.27
2023-05-16T08:35:07.337Z,22.02
2023-05-16T08:36:07.435Z,22.15
2023-05-16T08:37:07.892Z,23.40
2023-05-16T08:38:07.484Z,24.42
2023-05-16T08:39:07.553Z,25.49
2023-05-16T08:40:07.618Z,25.00
2023-05-16T08:41:07.918Z,21.78
2023-05-16T08:42:07.713Z,17.12
2023-05-16T08:43:07.763Z,15.56
2023-05-16T08:44:08.428Z,14.49
2023-05-16T08:45:07.811Z,13.83
2023-05-16T08:46:07.957Z,13.25
2023-05-16T08:47:07.910Z,16.09
2023-05-16T08:48:10.268Z,14.69
2023-05-16T08:49:08.033Z,13.84
2023-05-16T08:50:07.921Z,14.56
2023-05-16T08:51:07.918Z,12.40
2023-05-16T08:52:07.936Z,10.17
2023-05-16T08:53:07.899Z,8.82
2023-05-16T08:54:07.882Z,8.37
2023-05-16T08:55:11.352Z,8.66
2023-05-16T08:56:07.909Z,8.18
2023-05-16T08:57:07.878Z,8.75
2023-05-16T08:58:07.869Z,8.21
2023-05-16T08:59:07.868Z,7.44
2023-05-16T09:00:07.834Z,8.75
2023-05-16T09:01:07.986Z,8.20
2023-05-16T09:02:07.850Z,8.80
2023-05-16T09:03:07.939Z,8.26
2023-05-16T09:04:07.862Z,7.43
2023-05-16T09:05:07.811Z,8.36
2023-05-16T09:06:08.306Z,8.92
2023-05-16T09:07:07.797Z,10.15
2023-05-16T09:08:07.787Z,8.37
2023-05-16T09:09:07.785Z,7.53
2023-05-16T09:10:07.822Z,9.29
2023-05-16T09:11:07.914Z,9.38
2023-05-16T09:12:07.779Z,10.89
2023-05-16T09:13:07.752Z,11.00
2023-05-16T09:14:07.759Z,11.05
2023-05-16T09:15:07.747Z,10.70
2023-05-16T09:16:07.944Z,9.20
2023-05-16T09:17:09.090Z,9.65
2023-05-16T09:18:07.744Z,9.01
2023-05-16T09:19:07.752Z,9.16
2023-05-16T09:20:07.738Z,8.66
2023-05-16T09:21:07.720Z,9.33
2023-05-16T09:22:07.717Z,10.50
2023-05-16T09:23:07.695Z,10.90
2023-05-16T09:24:07.706Z,7.98
2023-05-16T09:25:12.659Z,9.24
2023-05-16T09:26:08.934Z,9.33
2023-05-16T09:27:07.668Z,9.68
2023-05-16T09:28:07.689Z,10.29
2023-05-16T09:29:07.664Z,11.10
2023-05-16T09:30:07.653Z,11.64
2023-05-16T09:31:07.944Z,13.43
2023-05-16T09:32:07.678Z,15.82
2023-05-16T09:33:07.699Z,18.37
2023-05-16T09:34:07.652Z,21.73
2023-05-16T09:35:07.617Z,22.60
2023-05-16T09:36:09.418Z,19.56
2023-05-16T09:37:07.595Z,18.78
2023-05-16T09:38:07.604Z,17.96
2023-05-16T09:39:07.594Z,11.48
2023-05-16T09:40:07.596Z,8.89
2023-05-16T09:41:07.580Z,7.81
2023-05-16T09:42:07.561Z,7.56
2023-05-16T09:43:07.548Z,7.56
2023-05-16T09:44:07.576Z,6.80
2023-05-16T09:45:07.585Z,4.98
2023-05-16T09:46:07.901Z,3.46
2023-05-16T09:47:07.693Z,3.09
2023-05-16T09:48:07.820Z,3.34
2023-05-16T09:49:07.824Z,2.94
2023-05-16T09:50:07.852Z,3.00
2023-05-16T09:51:08.429Z,3.13
2023-05-16T09:52:09.939Z,3.30
2023-05-16T09:53:08.035Z,3.13
2023-05-16T09:54:08.074Z,3.02
2023-05-16T09:55:08.074Z,3.50
2023-05-16T09:56:08.187Z,3.68
2023-05-16T09:57:08.110Z,3.87
2023-05-16T09:58:08.117Z,3.65
2023-05-16T09:59:08.190Z,3.70
2023-05-16T10:00:08.182Z,3.46
2023-05-16T10:01:08.195Z,3.43
2023-05-16T10:02:08.251Z,3.41
2023-05-16T10:03:08.351Z,3.42
2023-05-16T10:04:08.353Z,3.73
2023-05-16T10:05:08.311Z,3.98
2023-05-16T10:06:08.346Z,4.42
2023-05-16T10:07:08.359Z,4.17
2023-05-16T10:08:08.395Z,3.93
2023-05-16T10:09:08.422Z,3.96
2023-05-16T10:10:08.436Z,3.86
2023-05-16T10:11:08.460Z,3.88
2023-05-16T10:12:08.496Z,3.89
2023-05-16T10:13:08.538Z,4.10
2023-05-16T10:14:08.538Z,4.29
2023-05-16T10:15:08.550Z,4.72
2023-05-16T10:16:08.639Z,4.68
2023-05-16T10:17:08.580Z,4.93
2023-05-16T10:18:08.613Z,4.99
2023-05-16T10:19:08.689Z,5.21
2023-05-16T10:20:08.948Z,5.27
2023-05-16T10:22:08.694Z,5.30
2023-05-16T10:23:08.750Z,6.16
2023-05-16T10:24:08.791Z,6.68
2023-05-16T10:25:08.933Z,9.35
2023-05-16T10:26:08.961Z,10.76
2023-05-16T10:27:08.864Z,11.70
2023-05-16T10:28:08.878Z,12.63
2023-05-16T10:29:08.926Z,13.49
2023-05-16T10:30:08.901Z,14.32
2023-05-16T10:31:08.887Z,15.31
2023-05-16T10:32:08.965Z,15.51
2023-05-16T10:33:09.112Z,16.03
2023-05-16T10:34:08.987Z,16.65
2023-05-16T10:35:09.051Z,16.71
2023-05-16T10:36:09.450Z,16.79
2023-05-16T10:37:09.109Z,17.21
2023-05-16T10:38:09.133Z,17.37
2023-05-16T10:39:09.143Z,17.14
2023-05-16T10:40:09.158Z,17.49
2023-05-16T10:41:09.173Z,18.46
2023-05-16T10:42:09.380Z,19.47
2023-05-16T10:43:09.177Z,19.68
2023-05-16T10:44:09.171Z,20.11
2023-05-16T10:45:09.187Z,23.40
2023-05-16T10:46:09.206Z,31.13
2023-05-16T10:47:09.277Z,33.46
2023-05-16T10:48:09.359Z,30.78
2023-05-16T10:49:09.240Z,32.08
2023-05-16T10:50:09.296Z,33.43
2023-05-16T10:51:09.225Z,33.49
2023-05-16T10:52:09.226Z,32.65
2023-05-16T10:53:09.260Z,32.54
2023-05-16T10:54:09.352Z,26.54
2023-05-16T10:55:09.281Z,24.78
2023-05-16T10:56:09.345Z,26.55
2023-05-16T10:57:09.362Z,22.44
2023-05-16T10:58:09.413Z,23.98
2023-05-16T10:59:09.446Z,23.20
2023-05-16T11:00:09.688Z,23.85
2023-05-16T11:01:09.989Z,24.33
2023-05-16T11:02:09.971Z,25.99
2023-05-16T11:03:09.674Z,29.97
2023-05-16T11:04:09.513Z,33.74
2023-05-16T11:05:09.548Z,33.67
2023-05-16T11:06:09.962Z,32.29
2023-05-16T11:07:09.965Z,30.29
2023-05-16T11:08:09.595Z,26.06
2023-05-16T11:09:09.619Z,24.21
2023-05-16T11:10:09.648Z,24.70
2023-05-16T11:11:09.663Z,24.46
2023-05-16T11:12:09.736Z,19.52
2023-05-16T11:13:09.676Z,21.51
2023-05-16T11:14:09.716Z,14.59
2023-05-16T11:15:09.711Z,10.30
2023-05-16T11:16:09.985Z,8.20
2023-05-16T11:17:09.975Z,9.49
2023-05-16T11:18:09.781Z,11.80
2023-05-16T11:19:09.836Z,12.85
2023-05-16T11:20:09.774Z,11.99
2023-05-16T11:21:10.026Z,12.02
2023-05-16T11:22:09.813Z,12.18
2023-05-16T11:23:09.838Z,9.35
2023-05-16T11:24:09.851Z,8.55
2023-05-16T11:25:09.898Z,7.47
2023-05-16T11:26:09.972Z,6.31
2023-05-16T11:27:09.950Z,6.74
2023-05-16T11:28:09.961Z,6.66
2023-05-16T11:29:10.010Z,6.26
2023-05-16T11:30:10.034Z,7.21
2023-05-16T11:31:10.135Z,7.47
2023-05-16T11:32:10.150Z,7.72
2023-05-16T11:33:10.244Z,7.45
2023-05-16T11:34:10.248Z,7.55
2023-05-16T11:35:12.832Z,7.34
2023-05-16T11:37:10.287Z,7.35
2023-05-16T11:38:10.275Z,7.42
2023-05-16T11:39:10.316Z,7.62
2023-05-16T11:40:10.284Z,7.94
2023-05-16T11:41:10.247Z,8.99
2023-05-16T11:42:10.252Z,9.42
2023-05-16T11:43:10.236Z,9.49
2023-05-16T11:44:10.237Z,9.88
2023-05-16T11:45:10.251Z,9.68
2023-05-16T11:46:10.217Z,9.52
2023-05-16T11:47:10.319Z,9.40
2023-05-16T11:48:11.713Z,9.14
2023-05-16T11:49:10.213Z,9.15
2023-05-16T11:50:10.214Z,9.20
2023-05-16T11:51:10.181Z,9.25
2023-05-16T11:52:10.169Z,8.98
2023-05-16T11:53:10.158Z,8.89
2023-05-16T11:54:10.171Z,8.81
2023-05-16T11:55:10.155Z,8.83
2023-05-16T11:56:10.176Z,8.72
2023-05-16T11:57:10.152Z,8.63
2023-05-16T11:58:10.261Z,8.40
2023-05-16T11:59:10.111Z,8.12
2023-05-16T12:00:10.982Z,8.11
2023-05-16T12:01:10.125Z,8.10
2023-05-16T12:02:10.123Z,7.75
2023-05-16T12:03:10.209Z,7.65
2023-05-16T12:04:10.237Z,7.72
2023-05-16T12:05:10.321Z,7.56
2023-05-16T12:06:10.064Z,7.55
2023-05-16T12:07:10.084Z,7.40
2023-05-16T12:08:10.099Z,7.26
2023-05-16T12:09:10.056Z,7.25
2023-05-16T12:10:10.050Z,6.89
2023-05-16T12:11:10.093Z,6.63
2023-05-16T12:12:10.132Z,6.66
2023-05-16T12:13:10.185Z,6.44
2023-05-16T12:14:10.211Z,6.25
2023-05-16T12:15:10.241Z,6.13
2023-05-16T12:16:10.341Z,6.17
2023-05-16T12:17:10.414Z,6.12
2023-05-16T12:18:10.398Z,5.90
2023-05-16T12:19:10.401Z,5.86
2023-05-16T12:20:10.428Z,5.81
2023-05-16T12:21:10.448Z,5.62
2023-05-16T12:22:10.483Z,5.69
2023-05-16T12:23:10.508Z,5.65
2023-05-16T12:24:10.542Z,5.70
2023-05-16T12:25:10.577Z,5.75
2023-05-16T12:26:10.633Z,5.52
2023-05-16T12:27:10.678Z,5.57
2023-05-16T12:28:10.695Z,5.59
2023-05-16T12:29:10.747Z,5.42
2023-05-16T12:30:10.800Z,5.65
2023-05-16T12:31:15.831Z,5.47
2023-05-16T12:32:11.863Z,5.47
2023-05-16T12:33:10.843Z,5.49
2023-05-16T12:34:10.792Z,5.60
2023-05-16T12:35:10.813Z,5.49
2023-05-16T12:36:10.812Z,5.30
2023-05-16T12:37:10.805Z,5.23
2023-05-16T12:38:10.768Z,5.11
2023-05-16T12:39:10.773Z,5.03
2023-05-16T12:40:10.818Z,4.79
2023-05-16T12:41:10.742Z,4.71
2023-05-16T12:42:10.809Z,4.53
2023-05-16T12:43:10.727Z,4.54
2023-05-16T12:44:10.757Z,4.45
2023-05-16T12:45:10.787Z,4.39
2023-05-16T12:46:10.891Z,4.55
2023-05-16T12:47:10.903Z,4.42
2023-05-16T12:48:11.003Z,4.31
2023-05-16T12:49:10.991Z,4.41
2023-05-16T12:50:11.048Z,4.54
2023-05-16T12:51:11.116Z,4.45
2023-05-16T12:52:11.156Z,4.10
2023-05-16T12:53:11.184Z,4.12
2023-05-16T12:54:11.270Z,3.88
2023-05-16T12:55:11.257Z,3.74
2023-05-16T12:56:11.299Z,3.63
2023-05-16T12:57:11.358Z,3.79
2023-05-16T12:58:11.438Z,3.64
2023-05-16T12:59:11.428Z,3.67
2023-05-16T13:00:11.469Z,3.74
2023-05-16T13:01:11.947Z,3.57
2023-05-16T13:02:11.601Z,3.48
2023-05-16T13:03:11.785Z,3.41
2023-05-16T13:04:11.854Z,3.28
2023-05-16T13:05:11.698Z,3.21